createdAt,value
2018-09-05T00:01:30.193Z,12.93
2018-09-05T00:03:57.302Z,13.43
2018-09-05T00:06:24.422Z,13.77
2018-09-05T00:08:51.539Z,12.67
2018-09-05T00:11:18.821Z,13.07
2018-09-05T00:13:45.985Z,13.77
2018-09-05T00:16:13.169Z,14.37
2018-09-05T00:18:40.581Z,13.80
2018-09-05T00:21:07.645Z,11.80
2018-09-05T00:23:34.782Z,13.20
2018-09-05T00:26:01.930Z,11.93
2018-09-05T00:28:29.026Z,12.60
2018-09-05T00:30:56.165Z,12.03
2018-09-05T00:33:23.447Z,14.53
2018-09-05T00:35:50.639Z,11.10
2018-09-05T00:38:17.765Z,11.93
2018-09-05T00:40:44.882Z,12.67
2018-09-05T00:43:11.997Z,12.50
2018-09-05T00:45:39.046Z,11.47
2018-09-05T00:48:06.188Z,12.70
2018-09-05T00:50:33.297Z,11.77
2018-09-05T00:53:00.425Z,12.50
2018-09-05T00:55:27.546Z,13.10
2018-09-05T00:57:54.639Z,12.73
2018-09-05T01:00:21.873Z,13.20
2018-09-05T01:02:48.997Z,13.97
2018-09-05T01:07:42.810Z,12.47
2018-09-05T01:10:09.910Z,12.77
2018-09-05T01:15:19.949Z,11.70
2018-09-05T01:17:50.798Z,12.40
2018-09-05T01:20:17.924Z,12.17
2018-09-05T01:22:45.030Z,11.33
2018-09-05T01:25:12.057Z,11.70
2018-09-05T01:30:06.011Z,11.13
2018-09-05T01:32:33.126Z,12.98
2018-09-05T01:35:00.317Z,12.33
2018-09-05T01:37:27.430Z,13.17
2018-09-05T01:39:54.574Z,13.30
2018-09-05T01:43:36.858Z,11.30
2018-09-05T01:46:04.169Z,11.80
2018-09-05T01:48:31.301Z,12.50
2018-09-05T01:50:58.525Z,11.67
2018-09-05T01:53:25.742Z,12.00
2018-09-05T01:55:52.981Z,12.73
2018-09-05T02:00:46.626Z,12.70
2018-09-05T02:03:13.754Z,13.10
2018-09-05T02:08:07.578Z,12.87
2018-09-05T02:10:34.726Z,12.50
2018-09-05T02:13:01.966Z,13.20
2018-09-05T02:15:29.298Z,12.50
2018-09-05T02:17:56.441Z,11.10
2018-09-05T02:33:47.901Z,14.28
2018-09-05T02:38:41.878Z,12.50
2018-09-05T02:41:09.191Z,12.30
2018-09-05T02:43:42.309Z,13.00
2018-09-05T02:46:09.546Z,11.57
2018-09-05T02:48:36.681Z,11.10
2018-09-05T02:51:03.813Z,11.20
2018-09-05T02:53:30.968Z,11.13
2018-09-05T02:56:01.041Z,11.53
2018-09-05T03:00:54.894Z,10.35
2018-09-05T03:03:22.018Z,12.13
2018-09-05T03:05:49.202Z,13.00
2018-09-05T03:08:16.510Z,11.90
2018-09-05T03:10:43.598Z,12.10
2018-09-05T03:13:10.965Z,12.10
2018-09-05T03:15:38.163Z,12.97
2018-09-05T03:18:05.467Z,13.60
2018-09-05T03:20:32.578Z,11.30
2018-09-05T03:22:59.793Z,11.30
2018-09-05T03:25:26.971Z,11.57
2018-09-05T03:27:54.053Z,12.10
2018-09-05T03:30:21.295Z,11.13
2018-09-05T03:32:48.481Z,11.87
2018-09-05T03:35:15.896Z,11.13
2018-09-05T03:37:43.020Z,11.20
2018-09-05T03:42:36.733Z,10.50
2018-09-05T03:45:03.905Z,11.70
2018-09-05T03:47:31.176Z,10.83
2018-09-05T03:49:58.426Z,11.47
2018-09-05T03:52:25.582Z,11.40
2018-09-05T03:54:52.689Z,11.87
2018-09-05T03:57:19.922Z,12.60
2018-09-05T03:59:47.032Z,13.87
2018-09-05T04:02:14.363Z,11.37
2018-09-05T04:04:41.506Z,12.23
2018-09-05T04:07:08.705Z,11.73
2018-09-05T04:09:35.734Z,12.03
2018-09-05T04:12:02.880Z,11.90
2018-09-05T04:14:30.038Z,11.70
2018-09-05T04:16:57.368Z,11.23
2018-09-05T04:19:24.490Z,11.33
2018-09-05T04:21:51.601Z,11.67
2018-09-05T04:24:18.733Z,11.03
2018-09-05T04:26:45.894Z,11.73
2018-09-05T04:29:13.011Z,10.07
2018-09-05T04:31:40.066Z,11.73
2018-09-05T04:34:07.297Z,10.80
2018-09-05T04:36:34.421Z,9.77
2018-09-05T04:39:01.549Z,10.60
2018-09-05T04:43:55.393Z,14.50
2018-09-05T04:46:22.570Z,11.30
2018-09-05T04:48:49.626Z,11.73
2018-09-05T04:51:16.832Z,11.40
2018-09-05T04:56:11.006Z,10.43
2018-09-05T05:01:04.950Z,10.53
2018-09-05T05:03:32.037Z,10.47
2018-09-05T05:05:59.366Z,11.17
2018-09-05T05:08:26.525Z,11.20
2018-09-05T05:10:53.780Z,10.30
2018-09-05T05:13:20.972Z,10.43
2018-09-05T05:15:48.050Z,11.17
2018-09-05T05:20:41.911Z,9.28
2018-09-05T05:23:09.009Z,10.90
2018-09-05T05:25:36.087Z,11.10
2018-09-05T05:28:22.661Z,11.45
2018-09-05T05:30:49.829Z,11.73
2018-09-05T05:33:16.958Z,12.23
2018-09-05T05:35:44.050Z,11.47
2018-09-05T05:38:11.199Z,11.80
2018-09-05T05:40:38.524Z,14.73
2018-09-05T05:43:06.055Z,11.43
2018-09-05T05:46:54.330Z,12.70
2018-09-05T05:49:21.527Z,11.30
2018-09-05T05:51:48.636Z,13.10
2018-09-05T05:54:15.809Z,12.03
2018-09-05T05:59:09.873Z,13.00
2018-09-05T06:01:37.042Z,14.13
2018-09-05T06:04:04.310Z,11.67
2018-09-05T06:06:31.466Z,13.20
2018-09-05T06:08:58.707Z,11.80
2018-09-05T06:11:25.898Z,10.87
2018-09-05T06:13:53.218Z,11.80
2018-09-05T06:16:20.451Z,11.53
2018-09-05T06:18:47.579Z,9.80
2018-09-05T06:21:14.634Z,11.50
2018-09-05T06:23:41.734Z,13.70
2018-09-05T06:28:35.573Z,14.43
2018-09-05T06:31:02.827Z,12.70
2018-09-05T06:33:30.034Z,14.03
2018-09-05T06:35:57.298Z,18.23
2018-09-05T06:38:24.501Z,17.77
2018-09-05T06:40:51.661Z,15.37
2018-09-05T06:43:18.826Z,18.33
2018-09-05T06:45:45.962Z,14.90
2018-09-05T06:48:13.153Z,20.70
2018-09-05T06:50:40.381Z,19.97
2018-09-05T06:53:07.696Z,14.57
2018-09-05T06:55:34.870Z,15.67
2018-09-05T06:58:02.419Z,15.60
2018-09-05T07:00:29.893Z,18.30
2018-09-05T07:02:57.234Z,14.73
2018-09-05T07:05:24.294Z,16.77
2018-09-05T07:07:51.466Z,17.13
2018-09-05T07:10:18.786Z,16.57
2018-09-05T07:12:46.092Z,18.23
2018-09-05T07:15:13.442Z,15.57
2018-09-05T07:17:40.644Z,19.40
2018-09-05T07:20:07.769Z,20.40
2018-09-05T07:22:35.171Z,22.45
2018-09-05T07:25:02.416Z,17.63
2018-09-05T07:27:29.592Z,22.20
2018-09-05T07:29:56.645Z,20.73
2018-09-05T07:32:23.725Z,21.20
2018-09-05T07:34:50.903Z,25.23
2018-09-05T07:37:18.026Z,24.07
2018-09-05T07:39:45.320Z,20.73
2018-09-05T07:42:12.562Z,18.67
2018-09-05T07:44:39.866Z,17.30
2018-09-05T07:47:07.009Z,19.35
2018-09-05T07:49:34.197Z,19.77
2018-09-05T07:52:01.306Z,20.07
2018-09-05T07:54:28.533Z,18.77
2018-09-05T08:01:49.453Z,19.73
2018-09-05T08:04:16.734Z,16.60
2018-09-05T08:06:43.881Z,15.17
2018-09-05T08:09:11.825Z,21.13
2018-09-05T08:11:39.046Z,16.12
2018-09-05T08:16:33.302Z,19.60
2018-09-05T08:19:00.522Z,20.07
2018-09-05T08:21:27.639Z,16.13
2018-09-05T08:23:54.889Z,20.23
2018-09-05T08:26:22.171Z,19.13
2018-09-05T08:28:49.459Z,16.87
2018-09-05T08:31:16.569Z,17.27
2018-09-05T08:33:43.997Z,17.45
2018-09-05T08:38:37.985Z,14.00
2018-09-05T08:43:36.510Z,13.57
2018-09-05T08:46:03.932Z,16.13
2018-09-05T08:48:30.987Z,13.48
2018-09-05T08:53:25.007Z,13.63
2018-09-05T08:55:52.373Z,18.83
2018-09-05T08:58:19.513Z,14.00
2018-09-05T09:00:46.735Z,16.67
2018-09-05T09:03:13.974Z,14.73
2018-09-05T09:08:07.820Z,13.58
2018-09-05T09:10:34.979Z,13.20
2018-09-05T09:13:02.071Z,14.10
2018-09-05T09:15:29.438Z,16.83
2018-09-05T09:17:56.594Z,13.03
2018-09-05T09:20:23.622Z,14.67
2018-09-05T09:22:50.730Z,12.43
2018-09-05T09:25:17.878Z,13.93
2018-09-05T09:27:45.397Z,13.03
2018-09-05T09:30:12.675Z,11.97
2018-09-05T09:32:39.874Z,13.73
2018-09-05T09:35:07.026Z,13.80
2018-09-05T09:37:34.437Z,13.93
2018-09-05T09:40:01.585Z,19.57
2018-09-05T09:42:28.691Z,23.50
2018-09-05T09:44:55.737Z,19.43
2018-09-05T09:47:22.882Z,21.17
2018-09-05T09:49:50.022Z,22.50
2018-09-05T09:52:18.454Z,21.83
2018-09-05T09:54:45.973Z,23.00
2018-09-05T09:57:13.354Z,24.18
2018-09-05T09:59:40.481Z,21.70
2018-09-05T10:02:13.613Z,21.13
2018-09-05T10:04:46.726Z,19.67
2018-09-05T10:09:52.106Z,20.15
2018-09-05T10:14:57.624Z,22.17
2018-09-05T10:17:32.571Z,20.50
2018-09-05T10:20:00.165Z,22.53
2018-09-05T10:22:27.804Z,22.20
2018-09-05T10:24:55.694Z,20.87
2018-09-05T10:27:23.561Z,21.37
2018-09-05T10:29:50.930Z,21.13
2018-09-05T10:32:18.174Z,21.00
2018-09-05T10:34:45.462Z,24.00
2018-09-05T10:37:13.202Z,21.53
2018-09-05T10:39:40.313Z,20.77
2018-09-05T10:42:07.462Z,22.20
2018-09-05T10:44:34.986Z,21.63
2018-09-05T10:47:02.054Z,22.00
2018-09-05T10:49:29.310Z,23.17
2018-09-05T10:52:00.978Z,21.87
2018-09-05T10:54:28.062Z,19.70
2018-09-05T10:56:55.417Z,22.20
2018-09-05T10:59:22.545Z,21.27
2018-09-05T11:01:49.611Z,23.03
2018-09-05T11:04:16.826Z,23.10
2018-09-05T11:06:43.889Z,20.93
2018-09-05T11:09:11.879Z,25.57
2018-09-05T11:11:39.563Z,24.50
2018-09-05T11:14:06.989Z,20.10
2018-09-05T11:16:34.196Z,20.50
2018-09-05T11:19:01.478Z,21.60
2018-09-05T11:21:28.610Z,21.23
2018-09-05T11:26:22.405Z,21.20
2018-09-05T11:28:49.586Z,20.83
2018-09-05T11:31:16.751Z,22.20
2018-09-05T11:33:43.910Z,20.97
2018-09-05T11:36:11.027Z,21.83
2018-09-05T11:38:38.774Z,22.13
2018-09-05T11:41:05.934Z,20.57
2018-09-05T11:43:33.164Z,20.90
2018-09-05T11:46:00.506Z,20.93
2018-09-05T11:48:27.592Z,21.07
2018-09-05T11:50:54.641Z,21.43
2018-09-05T11:53:21.786Z,21.13
2018-09-05T11:55:48.909Z,20.60
2018-09-05T11:58:16.211Z,19.57
2018-09-05T12:00:43.358Z,20.43
2018-09-05T12:03:10.544Z,20.27
2018-09-05T12:05:37.714Z,20.70
2018-09-05T12:08:04.789Z,20.60
2018-09-05T12:10:31.965Z,19.93
2018-09-05T12:12:59.080Z,20.37
2018-09-05T12:15:52.071Z,20.25
2018-09-05T12:18:19.520Z,21.10
2018-09-05T12:20:46.629Z,20.23
2018-09-05T12:23:14.030Z,21.43
2018-09-05T12:28:08.570Z,20.90
2018-09-05T12:30:35.650Z,21.50
2018-09-05T12:33:02.741Z,20.80
2018-09-05T12:35:29.910Z,20.83
2018-09-05T12:37:57.163Z,20.50
2018-09-05T12:40:24.377Z,22.23
2018-09-05T12:42:51.543Z,21.80
2018-09-05T12:45:18.849Z,22.43
2018-09-05T12:47:46.053Z,20.47
2018-09-05T12:50:13.307Z,20.20
2018-09-05T12:54:53.443Z,21.42
2018-09-05T12:57:20.741Z,21.80
2018-09-05T12:59:47.901Z,23.40
2018-09-05T13:02:15.033Z,20.53
2018-09-05T13:04:42.315Z,22.10
2018-09-05T13:07:09.514Z,21.60
2018-09-05T13:09:36.702Z,22.23
2018-09-05T13:12:03.786Z,22.00
2018-09-05T13:14:31.006Z,20.33
2018-09-05T13:19:24.905Z,21.87
2018-09-05T13:21:52.047Z,20.70
2018-09-05T13:24:19.243Z,24.13
2018-09-05T13:26:46.519Z,21.63
2018-09-05T13:29:13.578Z,21.23
2018-09-05T13:31:40.746Z,22.50
2018-09-05T13:34:07.973Z,21.70
2018-09-05T13:36:35.069Z,22.55
2018-09-05T13:39:03.281Z,21.67
2018-09-05T13:41:30.523Z,21.60
2018-09-05T13:43:57.606Z,22.00
2018-09-05T13:46:24.645Z,21.70
2018-09-05T13:48:51.846Z,21.67
2018-09-05T13:51:18.991Z,22.13
2018-09-05T13:53:50.192Z,22.53
2018-09-05T13:56:17.476Z,21.23
2018-09-05T13:58:44.573Z,20.47
2018-09-05T14:03:38.453Z,22.60
2018-09-05T14:06:05.614Z,23.00
2018-09-05T14:10:59.526Z,22.50
2018-09-05T14:13:26.678Z,23.57
2018-09-05T14:17:40.167Z,22.82
2018-09-05T14:32:35.838Z,20.95
2018-09-05T14:35:03.027Z,21.57
2018-09-05T14:37:30.273Z,20.80
2018-09-05T14:39:57.490Z,20.67
2018-09-05T14:42:24.899Z,21.60
2018-09-05T14:47:19.936Z,20.70
2018-09-05T14:49:47.362Z,22.30
2018-09-05T14:52:14.505Z,23.20
2018-09-05T14:54:42.046Z,22.70
2018-09-05T14:57:09.361Z,19.50
2018-09-05T14:59:36.567Z,21.73
2018-09-05T15:02:03.826Z,23.27
2018-09-05T15:04:31.068Z,23.90
2018-09-05T15:06:58.385Z,20.47
2018-09-05T15:09:25.537Z,19.30
2018-09-05T15:11:52.717Z,20.10
2018-09-05T15:14:19.818Z,18.93
2018-09-05T15:16:46.946Z,21.67
2018-09-05T15:19:14.042Z,21.20
2018-09-05T15:21:41.182Z,20.80
2018-09-05T15:24:08.446Z,20.77
2018-09-05T15:26:35.582Z,21.87
2018-09-05T15:31:29.558Z,19.30
2018-09-05T15:33:56.633Z,19.03
2018-09-05T15:36:23.751Z,19.53
2018-09-05T15:38:50.882Z,21.40
2018-09-05T15:41:18.014Z,21.17
2018-09-05T15:43:45.397Z,23.33
2018-09-05T15:46:12.524Z,21.63
2018-09-05T15:48:39.593Z,19.90
2018-09-05T15:51:06.641Z,20.43
2018-09-05T15:53:33.694Z,19.00
2018-09-05T15:58:27.871Z,26.10
2018-09-05T16:00:55.023Z,19.23
2018-09-05T16:03:22.401Z,19.97
2018-09-05T16:05:49.554Z,18.70
2018-09-05T16:08:16.761Z,22.23
2018-09-05T16:10:43.893Z,23.77
2018-09-05T16:13:11.196Z,21.00
2018-09-05T16:15:38.531Z,27.80
2018-09-05T16:18:05.561Z,27.03
2018-09-05T16:20:33.022Z,25.47
2018-09-05T16:25:26.735Z,22.50
2018-09-05T16:27:53.869Z,24.90
2018-09-05T16:30:21.006Z,22.37
2018-09-05T16:32:48.239Z,22.43
2018-09-05T16:35:15.381Z,23.03
2018-09-05T16:37:42.602Z,20.60
2018-09-05T16:42:36.482Z,21.17
2018-09-05T16:45:03.590Z,19.00
2018-09-05T16:49:57.437Z,19.33
2018-09-05T16:52:27.946Z,20.37
2018-09-05T16:54:56.052Z,19.60
2018-09-05T16:57:23.164Z,20.03
2018-09-05T16:59:50.597Z,19.05
2018-09-05T17:02:17.799Z,19.20
2018-09-05T17:07:12.011Z,19.23
2018-09-05T17:12:05.775Z,18.98
2018-09-05T17:14:32.923Z,19.73
2018-09-05T17:17:00.035Z,19.60
2018-09-05T17:19:27.386Z,20.47
2018-09-05T17:21:54.573Z,19.67
2018-09-05T17:26:00.187Z,22.25
2018-09-05T17:30:23.747Z,21.35
2018-09-05T17:32:50.882Z,19.85
2018-09-05T17:37:44.754Z,20.43
2018-09-05T17:40:11.910Z,21.00
2018-09-05T17:42:39.175Z,19.37
2018-09-05T17:45:06.535Z,18.17
2018-09-05T17:47:33.971Z,19.80
2018-09-05T17:50:01.069Z,19.05
2018-09-05T17:52:28.441Z,19.43
2018-09-05T17:54:55.582Z,20.13
2018-09-05T17:57:22.867Z,21.17
2018-09-05T17:59:50.018Z,20.53
2018-09-05T18:02:17.283Z,18.93
2018-09-05T18:04:44.435Z,19.83
2018-09-05T18:07:11.564Z,19.00
2018-09-05T18:09:38.654Z,18.90
2018-09-05T18:12:05.930Z,19.70
2018-09-05T18:14:33.121Z,21.20
2018-09-05T18:17:00.410Z,19.60
2018-09-05T18:19:27.554Z,20.67
2018-09-05T18:21:54.622Z,18.57
2018-09-05T18:24:21.846Z,18.87
2018-09-05T18:26:48.985Z,20.20
2018-09-05T18:31:42.737Z,20.05
2018-09-05T18:34:09.910Z,19.10
2018-09-05T18:36:37.066Z,19.93
2018-09-05T18:39:06.501Z,19.93
2018-09-05T18:41:33.722Z,20.73
2018-09-05T18:44:00.870Z,22.27
2018-09-05T18:46:28.038Z,19.90
2018-09-05T18:51:21.897Z,19.40
2018-09-05T18:53:49.313Z,19.50
2018-09-05T18:56:16.549Z,20.03
2018-09-05T18:58:43.666Z,18.80
2018-09-05T19:01:10.902Z,22.00
2018-09-05T19:03:38.034Z,20.70
2018-09-05T19:06:05.446Z,19.33
2018-09-05T19:08:32.568Z,18.37
2018-09-05T19:10:59.645Z,19.10
2018-09-05T19:13:26.831Z,18.53
2018-09-05T19:15:53.965Z,19.27
2018-09-05T19:18:21.066Z,19.37
2018-09-05T19:20:48.296Z,19.30
2018-09-05T19:23:15.441Z,20.30
2018-09-05T19:25:42.589Z,18.93
2018-09-05T19:28:09.748Z,19.20
2018-09-05T19:30:36.974Z,18.37
2018-09-05T19:33:04.070Z,21.10
2018-09-05T19:35:31.471Z,20.80
2018-09-05T19:37:58.513Z,20.33
2018-09-05T19:40:25.642Z,20.73
2018-09-05T19:42:52.727Z,21.40
2018-09-05T19:45:19.726Z,20.80
2018-09-05T19:47:46.881Z,20.87
2018-09-05T19:50:14.079Z,22.33
2018-09-05T19:55:07.859Z,19.82
2018-09-05T19:57:35.294Z,22.00
2018-09-05T20:00:02.475Z,21.30
2018-09-05T20:02:29.585Z,21.70
2018-09-05T20:04:56.622Z,21.43
2018-09-05T20:07:23.802Z,21.90
2018-09-05T20:09:51.057Z,21.57
2018-09-05T20:14:45.011Z,21.48
2018-09-05T20:19:39.034Z,20.60
2018-09-05T20:22:08.609Z,20.23
2018-09-05T20:24:36.035Z,26.00
2018-09-05T20:29:29.717Z,21.77
2018-09-05T20:31:56.721Z,20.17
2018-09-05T20:34:23.874Z,21.10
2018-09-05T20:36:51.157Z,21.37
2018-09-05T20:39:18.421Z,20.33
2018-09-05T20:41:45.574Z,25.97
2018-09-05T20:44:12.613Z,28.17
2018-09-05T20:46:39.949Z,22.23
2018-09-05T20:51:33.742Z,21.80
2018-09-05T20:54:00.861Z,23.30
2018-09-05T20:56:27.997Z,28.93
2018-09-05T20:58:55.286Z,20.73
2018-09-05T21:01:22.537Z,21.03
2018-09-05T21:04:47.016Z,21.52
2018-09-05T21:07:14.361Z,20.47
2018-09-05T21:12:08.473Z,23.23
2018-09-05T21:14:35.574Z,22.35
2018-09-05T21:17:02.638Z,20.20
2018-09-05T21:19:29.641Z,20.57
2018-09-05T21:22:03.039Z,21.20
2018-09-05T21:24:30.164Z,22.20
2018-09-05T21:26:57.385Z,20.23
2018-09-05T21:29:24.529Z,21.90
2018-09-05T21:31:51.599Z,21.47
2018-09-05T21:34:18.805Z,26.93
2018-09-05T21:36:45.945Z,22.60
2018-09-05T21:39:13.041Z,22.57
2018-09-05T21:41:40.371Z,20.70
2018-09-05T21:44:07.482Z,20.73
2018-09-05T21:46:34.714Z,21.03
2018-09-05T21:51:38.672Z,26.48
2018-09-05T21:54:05.834Z,21.80
2018-09-05T21:56:32.977Z,22.80
2018-09-05T22:01:26.625Z,21.15
2018-09-05T22:03:56.298Z,20.40
2018-09-05T22:06:23.513Z,20.90
2018-09-05T22:08:50.622Z,20.20
2018-09-05T22:13:50.638Z,20.57
2018-09-05T22:16:17.666Z,23.60
2018-09-05T22:18:44.817Z,22.87
2018-09-05T22:21:11.939Z,20.73
2018-09-05T22:23:39.490Z,20.27
2018-09-05T22:26:06.581Z,22.00
2018-09-05T22:28:33.661Z,20.80
2018-09-05T22:31:00.829Z,21.05
2018-09-05T22:33:27.961Z,21.90
2018-09-05T22:35:55.521Z,20.23
2018-09-05T22:38:22.728Z,22.40
2018-09-05T22:40:51.818Z,19.60
2018-09-05T22:43:30.984Z,24.27
2018-09-05T22:48:51.514Z,21.03
2018-09-05T22:53:44.710Z,19.53
2018-09-05T22:56:41.811Z,19.43
2018-09-05T22:59:20.158Z,18.47
2018-09-05T23:01:58.573Z,20.77
2018-09-05T23:06:48.295Z,24.03
2018-09-05T23:09:19.842Z,21.50
2018-09-05T23:11:58.859Z,18.53
2018-09-05T23:14:38.575Z,20.73
2018-09-05T23:17:17.679Z,19.63
2018-09-05T23:19:57.302Z,23.97
2018-09-05T23:22:25.427Z,21.50
2018-09-05T23:24:52.574Z,21.83
2018-09-05T23:27:19.844Z,20.00
2018-09-05T23:29:46.991Z,18.03
2018-09-05T23:34:40.921Z,20.45
2018-09-05T23:37:08.034Z,22.33
2018-09-05T23:39:35.339Z,19.97
2018-09-05T23:42:02.462Z,21.47
2018-09-05T23:44:29.583Z,19.43
2018-09-05T23:46:56.702Z,19.97
2018-09-05T23:49:23.754Z,21.67
2018-09-05T23:51:50.892Z,25.37
2018-09-05T23:54:18.032Z,22.60
2018-09-05T23:56:45.450Z,20.10
2018-09-05T23:59:12.583Z,19.87
